sensor_id;sensor_type;location;lat;lon;timestamp;P1;durP1;ratioP1;P2;durP2;ratioP2
53391;SDS011;41667;51.922;8.850;2022-10-26T00:01:08;6.65;;;3.78;;
53391;SDS011;41667;51.922;8.850;2022-10-26T00:03:34;4.25;;;3.90;;
53391;SDS011;41667;51.922;8.850;2022-10-26T00:06:03;16.42;;;3.65;;
53391;SDS011;41667;51.922;8.850;2022-10-26T00:08:28;4.88;;;3.85;;
53391;SDS011;41667;51.922;8.850;2022-10-26T00:10:56;8.47;;;4.30;;
53391;SDS011;41667;51.922;8.850;2022-10-26T00:13:21;9.10;;;3.75;;
53391;SDS011;41667;51.922;8.850;2022-10-26T00:15:46;8.93;;;3.23;;
53391;SDS011;41667;51.922;8.850;2022-10-26T00:18:11;7.35;;;3.55;;
53391;SDS011;41667;51.922;8.850;2022-10-26T00:20:36;4.88;;;3.70;;
53391;SDS011;41667;51.922;8.850;2022-10-26T00:23:02;9.20;;;4.33;;
53391;SDS011;41667;51.922;8.850;2022-10-26T00:25:27;10.15;;;3.50;;
53391;SDS011;41667;51.922;8.850;2022-10-26T00:27:52;8.43;;;3.57;;
53391;SDS011;41667;51.922;8.850;2022-10-26T00:30:17;3.13;;;2.50;;
53391;SDS011;41667;51.922;8.850;2022-10-26T00:32:42;6.07;;;2.22;;
53391;SDS011;41667;51.922;8.850;2022-10-26T00:35:07;3.73;;;2.80;;
53391;SDS011;41667;51.922;8.850;2022-10-26T00:37:33;9.52;;;3.30;;
53391;SDS011;41667;51.922;8.850;2022-10-26T00:39:58;3.47;;;2.80;;
53391;SDS011;41667;51.922;8.850;2022-10-26T00:42:23;5.45;;;2.50;;
53391;SDS011;41667;51.922;8.850;2022-10-26T00:47:14;7.35;;;2.90;;
53391;SDS011;41667;51.922;8.850;2022-10-26T00:49:40;5.82;;;3.60;;
53391;SDS011;41667;51.922;8.850;2022-10-26T00:52:06;4.80;;;2.60;;
53391;SDS011;41667;51.922;8.850;2022-10-26T00:54:32;22.02;;;3.22;;
53391;SDS011;41667;51.922;8.850;2022-10-26T00:56:57;10.13;;;3.22;;
53391;SDS011;41667;51.922;8.850;2022-10-26T00:59:23;4.65;;;3.10;;
53391;SDS011;41667;51.922;8.850;2022-10-26T01:01:48;9.17;;;3.57;;
53391;SDS011;41667;51.922;8.850;2022-10-26T01:04:14;5.07;;;2.95;;
53391;SDS011;41667;51.922;8.850;2022-10-26T01:06:40;6.57;;;3.75;;
53391;SDS011;41667;51.922;8.850;2022-10-26T01:09:06;9.88;;;4.72;;
53391;SDS011;41667;51.922;8.850;2022-10-26T01:11:31;7.30;;;3.47;;
53391;SDS011;41667;51.922;8.850;2022-10-26T01:13:57;12.88;;;3.33;;
53391;SDS011;41667;51.922;8.850;2022-10-26T01:19:06;11.38;;;5.13;;
53391;SDS011;41667;51.922;8.850;2022-10-26T01:21:38;8.85;;;3.95;;
53391;SDS011;41667;51.922;8.850;2022-10-26T01:26:46;7.97;;;4.07;;
53391;SDS011;41667;51.922;8.850;2022-10-26T01:29:28;7.87;;;4.07;;
53391;SDS011;41667;51.922;8.850;2022-10-26T01:32:04;6.93;;;3.50;;
53391;SDS011;41667;51.922;8.850;2022-10-26T01:34:33;4.82;;;3.80;;
53391;SDS011;41667;51.922;8.850;2022-10-26T01:37:05;4.65;;;4.13;;
53391;SDS011;41667;51.922;8.850;2022-10-26T01:39:36;5.38;;;3.40;;
53391;SDS011;41667;51.922;8.850;2022-10-26T01:42:03;6.30;;;3.83;;
53391;SDS011;41667;51.922;8.850;2022-10-26T01:44:33;6.63;;;4.53;;
53391;SDS011;41667;51.922;8.850;2022-10-26T01:47:03;7.45;;;4.32;;
53391;SDS011;41667;51.922;8.850;2022-10-26T01:49:33;9.70;;;4.50;;
53391;SDS011;41667;51.922;8.850;2022-10-26T01:52:00;7.88;;;4.40;;
53391;SDS011;41667;51.922;8.850;2022-10-26T01:54:25;7.22;;;4.57;;
53391;SDS011;41667;51.922;8.850;2022-10-26T01:56:54;7.17;;;4.53;;
53391;SDS011;41667;51.922;8.850;2022-10-26T02:07:29;8.50;;;4.97;;
53391;SDS011;41667;51.922;8.850;2022-10-26T02:09:58;8.35;;;3.80;;
53391;SDS011;41667;51.922;8.850;2022-10-26T02:15:29;7.30;;;4.30;;
53391;SDS011;41667;51.922;8.850;2022-10-26T02:17:58;12.07;;;4.13;;
53391;SDS011;41667;51.922;8.850;2022-10-26T02:20:24;8.77;;;4.03;;
53391;SDS011;41667;51.922;8.850;2022-10-26T02:22:51;7.50;;;3.92;;
53391;SDS011;41667;51.922;8.850;2022-10-26T02:25:27;8.45;;;4.88;;
53391;SDS011;41667;51.922;8.850;2022-10-26T02:27:56;8.45;;;4.78;;
53391;SDS011;41667;51.922;8.850;2022-10-26T02:30:23;5.45;;;4.88;;
53391;SDS011;41667;51.922;8.850;2022-10-26T02:32:49;7.45;;;4.55;;
53391;SDS011;41667;51.922;8.850;2022-10-26T02:35:15;7.07;;;4.97;;
53391;SDS011;41667;51.922;8.850;2022-10-26T02:37:42;5.97;;;4.20;;
53391;SDS011;41667;51.922;8.850;2022-10-26T02:40:10;7.65;;;4.72;;
53391;SDS011;41667;51.922;8.850;2022-10-26T02:42:37;9.77;;;4.43;;
53391;SDS011;41667;51.922;8.850;2022-10-26T02:45:05;12.18;;;3.85;;
53391;SDS011;41667;51.922;8.850;2022-10-26T02:47:31;7.85;;;3.75;;
53391;SDS011;41667;51.922;8.850;2022-10-26T02:49:56;6.55;;;4.47;;
53391;SDS011;41667;51.922;8.850;2022-10-26T02:52:44;6.65;;;3.78;;
53391;SDS011;41667;51.922;8.850;2022-10-26T02:55:11;5.18;;;3.28;;
53391;SDS011;41667;51.922;8.850;2022-10-26T02:57:39;7.50;;;3.65;;
53391;SDS011;41667;51.922;8.850;2022-10-26T03:00:06;7.50;;;3.55;;
53391;SDS011;41667;51.922;8.850;2022-10-26T03:02:31;7.93;;;4.82;;
53391;SDS011;41667;51.922;8.850;2022-10-26T03:04:56;5.30;;;3.83;;
53391;SDS011;41667;51.922;8.850;2022-10-26T03:07:30;14.52;;;4.78;;
53391;SDS011;41667;51.922;8.850;2022-10-26T03:09:55;7.75;;;4.40;;
53391;SDS011;41667;51.922;8.850;2022-10-26T03:12:20;10.33;;;6.27;;
53391;SDS011;41667;51.922;8.850;2022-10-26T03:14:45;11.90;;;5.25;;
53391;SDS011;41667;51.922;8.850;2022-10-26T03:17:10;9.37;;;5.40;;
53391;SDS011;41667;51.922;8.850;2022-10-26T03:19:36;8.80;;;6.32;;
53391;SDS011;41667;51.922;8.850;2022-10-26T03:22:01;13.65;;;6.68;;
53391;SDS011;41667;51.922;8.850;2022-10-26T03:24:26;15.10;;;6.05;;
53391;SDS011;41667;51.922;8.850;2022-10-26T03:26:51;7.82;;;5.70;;
53391;SDS011;41667;51.922;8.850;2022-10-26T03:29:16;10.70;;;5.25;;
53391;SDS011;41667;51.922;8.850;2022-10-26T03:31:42;14.10;;;6.77;;
53391;SDS011;41667;51.922;8.850;2022-10-26T03:34:07;8.60;;;6.50;;
53391;SDS011;41667;51.922;8.850;2022-10-26T03:36:32;14.93;;;6.40;;
53391;SDS011;41667;51.922;8.850;2022-10-26T03:38:58;16.58;;;7.03;;
53391;SDS011;41667;51.922;8.850;2022-10-26T03:41:23;16.67;;;7.90;;
53391;SDS011;41667;51.922;8.850;2022-10-26T03:43:48;10.43;;;7.27;;
53391;SDS011;41667;51.922;8.850;2022-10-26T03:46:13;12.65;;;7.97;;
53391;SDS011;41667;51.922;8.850;2022-10-26T03:48:39;12.98;;;8.48;;
53391;SDS011;41667;51.922;8.850;2022-10-26T03:51:04;15.13;;;8.53;;
53391;SDS011;41667;51.922;8.850;2022-10-26T03:53:29;14.38;;;9.13;;
53391;SDS011;41667;51.922;8.850;2022-10-26T03:55:54;16.70;;;8.80;;
53391;SDS011;41667;51.922;8.850;2022-10-26T03:58:19;18.13;;;10.63;;
53391;SDS011;41667;51.922;8.850;2022-10-26T04:00:45;19.57;;;10.90;;
53391;SDS011;41667;51.922;8.850;2022-10-26T04:03:11;21.50;;;10.27;;
53391;SDS011;41667;51.922;8.850;2022-10-26T04:05:36;16.25;;;11.20;;
53391;SDS011;41667;51.922;8.850;2022-10-26T04:08:01;20.20;;;11.55;;
53391;SDS011;41667;51.922;8.850;2022-10-26T04:10:29;20.98;;;11.15;;
53391;SDS011;41667;51.922;8.850;2022-10-26T04:12:54;19.02;;;11.60;;
53391;SDS011;41667;51.922;8.850;2022-10-26T04:15:20;21.73;;;11.70;;
53391;SDS011;41667;51.922;8.850;2022-10-26T04:17:45;18.38;;;11.57;;
53391;SDS011;41667;51.922;8.850;2022-10-26T04:20:11;21.27;;;11.45;;
53391;SDS011;41667;51.922;8.850;2022-10-26T04:22:36;18.33;;;11.60;;
53391;SDS011;41667;51.922;8.850;2022-10-26T04:25:02;21.15;;;12.93;;
53391;SDS011;41667;51.922;8.850;2022-10-26T04:27:27;20.10;;;10.95;;
53391;SDS011;41667;51.922;8.850;2022-10-26T04:29:53;17.92;;;10.30;;
53391;SDS011;41667;51.922;8.850;2022-10-26T04:32:18;21.83;;;11.70;;
53391;SDS011;41667;51.922;8.850;2022-10-26T04:34:43;21.37;;;11.67;;
53391;SDS011;41667;51.922;8.850;2022-10-26T04:37:08;19.10;;;12.07;;
53391;SDS011;41667;51.922;8.850;2022-10-26T04:39:33;18.07;;;12.37;;
53391;SDS011;41667;51.922;8.850;2022-10-26T04:41:58;21.73;;;11.70;;
53391;SDS011;41667;51.922;8.850;2022-10-26T04:44:23;17.02;;;11.45;;
53391;SDS011;41667;51.922;8.850;2022-10-26T04:46:49;17.57;;;11.23;;
53391;SDS011;41667;51.922;8.850;2022-10-26T04:49:14;16.88;;;10.52;;
53391;SDS011;41667;51.922;8.850;2022-10-26T04:51:39;19.23;;;11.07;;
53391;SDS011;41667;51.922;8.850;2022-10-26T04:54:04;15.63;;;9.50;;
53391;SDS011;41667;51.922;8.850;2022-10-26T04:56:29;22.23;;;11.80;;
53391;SDS011;41667;51.922;8.850;2022-10-26T04:58:54;18.30;;;9.60;;
53391;SDS011;41667;51.922;8.850;2022-10-26T05:01:20;14.35;;;9.30;;
53391;SDS011;41667;51.922;8.850;2022-10-26T05:03:49;13.10;;;8.93;;
53391;SDS011;41667;51.922;8.850;2022-10-26T05:06:14;17.42;;;8.98;;
53391;SDS011;41667;51.922;8.850;2022-10-26T05:08:39;13.98;;;8.27;;
53391;SDS011;41667;51.922;8.850;2022-10-26T05:11:04;16.08;;;9.00;;
53391;SDS011;41667;51.922;8.850;2022-10-26T05:13:30;13.53;;;9.20;;
53391;SDS011;41667;51.922;8.850;2022-10-26T05:15:55;15.30;;;9.63;;
53391;SDS011;41667;51.922;8.850;2022-10-26T05:18:20;17.03;;;9.73;;
53391;SDS011;41667;51.922;8.850;2022-10-26T05:20:45;14.85;;;9.20;;
53391;SDS011;41667;51.922;8.850;2022-10-26T05:23:10;20.07;;;10.57;;
53391;SDS011;41667;51.922;8.850;2022-10-26T05:25:36;16.73;;;8.70;;
53391;SDS011;41667;51.922;8.850;2022-10-26T05:28:07;11.75;;;7.53;;
53391;SDS011;41667;51.922;8.850;2022-10-26T05:30:33;14.43;;;8.93;;
53391;SDS011;41667;51.922;8.850;2022-10-26T05:32:59;11.57;;;8.48;;
53391;SDS011;41667;51.922;8.850;2022-10-26T05:35:26;19.08;;;9.18;;
53391;SDS011;41667;51.922;8.850;2022-10-26T05:37:51;13.38;;;8.07;;
53391;SDS011;41667;51.922;8.850;2022-10-26T05:40:17;12.85;;;8.07;;
53391;SDS011;41667;51.922;8.850;2022-10-26T05:42:42;15.17;;;8.90;;
53391;SDS011;41667;51.922;8.850;2022-10-26T05:45:07;18.80;;;9.75;;
53391;SDS011;41667;51.922;8.850;2022-10-26T05:47:36;13.13;;;9.07;;
53391;SDS011;41667;51.922;8.850;2022-10-26T05:50:02;15.57;;;10.73;;
53391;SDS011;41667;51.922;8.850;2022-10-26T05:52:27;18.95;;;10.07;;
53391;SDS011;41667;51.922;8.850;2022-10-26T05:54:52;18.48;;;9.57;;
53391;SDS011;41667;51.922;8.850;2022-10-26T05:57:17;20.53;;;10.17;;
53391;SDS011;41667;51.922;8.850;2022-10-26T05:59:42;12.88;;;9.55;;
53391;SDS011;41667;51.922;8.850;2022-10-26T06:02:11;16.77;;;9.68;;
53391;SDS011;41667;51.922;8.850;2022-10-26T06:04:44;16.13;;;9.80;;
53391;SDS011;41667;51.922;8.850;2022-10-26T06:07:13;19.43;;;8.73;;
53391;SDS011;41667;51.922;8.850;2022-10-26T06:09:38;17.10;;;9.68;;
53391;SDS011;41667;51.922;8.850;2022-10-26T06:12:04;16.10;;;9.48;;
53391;SDS011;41667;51.922;8.850;2022-10-26T06:14:29;20.50;;;10.02;;
53391;SDS011;41667;51.922;8.850;2022-10-26T06:16:58;20.00;;;10.05;;
53391;SDS011;41667;51.922;8.850;2022-10-26T06:22:11;14.77;;;9.55;;
53391;SDS011;41667;51.922;8.850;2022-10-26T06:24:43;15.20;;;10.20;;
53391;SDS011;41667;51.922;8.850;2022-10-26T06:27:22;19.57;;;9.87;;
53391;SDS011;41667;51.922;8.850;2022-10-26T06:29:58;20.38;;;12.85;;
53391;SDS011;41667;51.922;8.850;2022-10-26T06:32:24;20.75;;;11.65;;
53391;SDS011;41667;51.922;8.850;2022-10-26T06:34:50;18.50;;;11.45;;
53391;SDS011;41667;51.922;8.850;2022-10-26T06:37:16;19.75;;;11.68;;
53391;SDS011;41667;51.922;8.850;2022-10-26T06:39:45;18.17;;;11.15;;
53391;SDS011;41667;51.922;8.850;2022-10-26T06:42:11;15.88;;;10.30;;
53391;SDS011;41667;51.922;8.850;2022-10-26T06:44:36;17.67;;;10.40;;
53391;SDS011;41667;51.922;8.850;2022-10-26T06:47:04;18.67;;;11.20;;
53391;SDS011;41667;51.922;8.850;2022-10-26T06:49:31;19.77;;;11.52;;
53391;SDS011;41667;51.922;8.850;2022-10-26T06:57:08;22.65;;;10.93;;
53391;SDS011;41667;51.922;8.850;2022-10-26T06:59:39;19.85;;;10.48;;
53391;SDS011;41667;51.922;8.850;2022-10-26T07:02:07;17.23;;;10.32;;
53391;SDS011;41667;51.922;8.850;2022-10-26T07:04:32;31.70;;;11.57;;
53391;SDS011;41667;51.922;8.850;2022-10-26T07:06:57;14.93;;;9.75;;
53391;SDS011;41667;51.922;8.850;2022-10-26T07:09:23;16.15;;;10.07;;
53391;SDS011;41667;51.922;8.850;2022-10-26T07:11:48;17.90;;;10.80;;
53391;SDS011;41667;51.922;8.850;2022-10-26T07:14:13;23.85;;;11.50;;
53391;SDS011;41667;51.922;8.850;2022-10-26T07:16:38;17.33;;;11.50;;
53391;SDS011;41667;51.922;8.850;2022-10-26T07:19:03;18.63;;;11.18;;
53391;SDS011;41667;51.922;8.850;2022-10-26T07:21:28;14.63;;;10.73;;
53391;SDS011;41667;51.922;8.850;2022-10-26T07:23:54;24.30;;;11.63;;
53391;SDS011;41667;51.922;8.850;2022-10-26T07:26:21;17.13;;;11.73;;
53391;SDS011;41667;51.922;8.850;2022-10-26T07:28:47;19.55;;;12.18;;
53391;SDS011;41667;51.922;8.850;2022-10-26T07:31:12;16.20;;;10.57;;
53391;SDS011;41667;51.922;8.850;2022-10-26T07:33:37;17.42;;;9.95;;
53391;SDS011;41667;51.922;8.850;2022-10-26T07:36:03;18.53;;;10.80;;
53391;SDS011;41667;51.922;8.850;2022-10-26T07:38:28;16.92;;;10.70;;
53391;SDS011;41667;51.922;8.850;2022-10-26T07:40:53;18.07;;;11.07;;
53391;SDS011;41667;51.922;8.850;2022-10-26T07:43:19;22.65;;;11.20;;
53391;SDS011;41667;51.922;8.850;2022-10-26T07:45:47;17.15;;;11.02;;
53391;SDS011;41667;51.922;8.850;2022-10-26T07:48:12;19.40;;;11.07;;
53391;SDS011;41667;51.922;8.850;2022-10-26T07:50:37;19.13;;;10.65;;
53391;SDS011;41667;51.922;8.850;2022-10-26T07:53:03;17.83;;;10.83;;
53391;SDS011;41667;51.922;8.850;2022-10-26T07:55:28;24.50;;;11.53;;
53391;SDS011;41667;51.922;8.850;2022-10-26T07:57:53;16.00;;;10.43;;
53391;SDS011;41667;51.922;8.850;2022-10-26T08:00:18;17.48;;;10.75;;
53391;SDS011;41667;51.922;8.850;2022-10-26T08:02:43;20.77;;;11.53;;
53391;SDS011;41667;51.922;8.850;2022-10-26T08:05:09;20.33;;;11.40;;
53391;SDS011;41667;51.922;8.850;2022-10-26T08:07:38;18.70;;;11.67;;
53391;SDS011;41667;51.922;8.850;2022-10-26T08:10:04;22.15;;;11.18;;
53391;SDS011;41667;51.922;8.850;2022-10-26T08:12:29;13.50;;;10.63;;
53391;SDS011;41667;51.922;8.850;2022-10-26T08:14:54;16.90;;;11.10;;
53391;SDS011;41667;51.922;8.850;2022-10-26T08:17:19;18.07;;;11.87;;
53391;SDS011;41667;51.922;8.850;2022-10-26T08:19:46;19.73;;;11.10;;
53391;SDS011;41667;51.922;8.850;2022-10-26T08:22:11;22.95;;;11.77;;
53391;SDS011;41667;51.922;8.850;2022-10-26T08:24:36;23.45;;;11.32;;
53391;SDS011;41667;51.922;8.850;2022-10-26T08:27:01;22.30;;;11.38;;
53391;SDS011;41667;51.922;8.850;2022-10-26T08:29:26;20.70;;;12.15;;
53391;SDS011;41667;51.922;8.850;2022-10-26T08:31:51;21.40;;;10.48;;
53391;SDS011;41667;51.922;8.850;2022-10-26T08:34:17;12.48;;;9.07;;
53391;SDS011;41667;51.922;8.850;2022-10-26T08:36:42;16.27;;;10.00;;
53391;SDS011;41667;51.922;8.850;2022-10-26T08:39:07;15.25;;;10.43;;
53391;SDS011;41667;51.922;8.850;2022-10-26T08:41:34;14.73;;;9.52;;
53391;SDS011;41667;51.922;8.850;2022-10-26T08:44:02;17.10;;;9.45;;
53391;SDS011;41667;51.922;8.850;2022-10-26T08:46:33;18.55;;;9.07;;
53391;SDS011;41667;51.922;8.850;2022-10-26T08:49:04;13.40;;;7.70;;
53391;SDS011;41667;51.922;8.850;2022-10-26T08:51:34;14.57;;;8.00;;
53391;SDS011;41667;51.922;8.850;2022-10-26T08:56:42;14.75;;;7.50;;
53391;SDS011;41667;51.922;8.850;2022-10-26T08:59:11;12.80;;;7.03;;
53391;SDS011;41667;51.922;8.850;2022-10-26T09:01:37;13.68;;;8.30;;
53391;SDS011;41667;51.922;8.850;2022-10-26T09:04:08;8.60;;;6.37;;
53391;SDS011;41667;51.922;8.850;2022-10-26T09:06:43;12.00;;;6.75;;
53391;SDS011;41667;51.922;8.850;2022-10-26T09:09:10;13.02;;;6.45;;
53391;SDS011;41667;51.922;8.850;2022-10-26T09:17:15;12.25;;;6.00;;
53391;SDS011;41667;51.922;8.850;2022-10-26T09:22:03;10.10;;;5.57;;
53391;SDS011;41667;51.922;8.850;2022-10-26T09:24:31;9.48;;;6.03;;
53391;SDS011;41667;51.922;8.850;2022-10-26T09:26:58;7.70;;;5.20;;
53391;SDS011;41667;51.922;8.850;2022-10-26T09:29:27;9.50;;;5.93;;
53391;SDS011;41667;51.922;8.850;2022-10-26T09:31:53;8.00;;;5.35;;
53391;SDS011;41667;51.922;8.850;2022-10-26T09:34:25;12.48;;;6.50;;
53391;SDS011;41667;51.922;8.850;2022-10-26T09:41:43;12.65;;;5.53;;
53391;SDS011;41667;51.922;8.850;2022-10-26T09:44:30;8.80;;;6.78;;
53391;SDS011;41667;51.922;8.850;2022-10-26T09:49:48;8.68;;;5.60;;
53391;SDS011;41667;51.922;8.850;2022-10-26T09:52:12;8.73;;;6.32;;
53391;SDS011;41667;51.922;8.850;2022-10-26T09:54:38;8.60;;;6.38;;
53391;SDS011;41667;51.922;8.850;2022-10-26T09:57:03;12.00;;;6.13;;
53391;SDS011;41667;51.922;8.850;2022-10-26T09:59:28;9.13;;;6.43;;
53391;SDS011;41667;51.922;8.850;2022-10-26T10:01:54;13.35;;;6.93;;
53391;SDS011;41667;51.922;8.850;2022-10-26T10:04:20;12.20;;;6.82;;
53391;SDS011;41667;51.922;8.850;2022-10-26T10:09:27;12.35;;;6.45;;
53391;SDS011;41667;51.922;8.850;2022-10-26T10:11:55;8.30;;;6.53;;
53391;SDS011;41667;51.922;8.850;2022-10-26T10:14:25;9.43;;;6.47;;
53391;SDS011;41667;51.922;8.850;2022-10-26T10:16:55;13.45;;;6.80;;
53391;SDS011;41667;51.922;8.850;2022-10-26T10:19:24;9.80;;;6.45;;
53391;SDS011;41667;51.922;8.850;2022-10-26T10:21:50;10.82;;;7.45;;
53391;SDS011;41667;51.922;8.850;2022-10-26T10:24:25;8.48;;;7.57;;
53391;SDS011;41667;51.922;8.850;2022-10-26T10:26:58;8.48;;;6.22;;
53391;SDS011;41667;51.922;8.850;2022-10-26T10:29:24;9.35;;;6.63;;
53391;SDS011;41667;51.922;8.850;2022-10-26T10:31:54;10.52;;;6.40;;
53391;SDS011;41667;51.922;8.850;2022-10-26T10:34:19;10.77;;;6.32;;
53391;SDS011;41667;51.922;8.850;2022-10-26T10:36:46;9.40;;;6.20;;
53391;SDS011;41667;51.922;8.850;2022-10-26T10:39:56;7.07;;;5.72;;
53391;SDS011;41667;51.922;8.850;2022-10-26T10:41:56;10.80;;;5.20;;
53391;SDS011;41667;51.922;8.850;2022-10-26T10:44:23;13.43;;;4.47;;
53391;SDS011;41667;51.922;8.850;2022-10-26T10:46:49;9.80;;;4.85;;
53391;SDS011;41667;51.922;8.850;2022-10-26T10:49:24;5.45;;;3.92;;
53391;SDS011;41667;51.922;8.850;2022-10-26T10:51:51;9.30;;;3.75;;
53391;SDS011;41667;51.922;8.850;2022-10-26T10:54:28;3.92;;;3.20;;
53391;SDS011;41667;51.922;8.850;2022-10-26T10:56:56;7.07;;;3.90;;
53391;SDS011;41667;51.922;8.850;2022-10-26T10:59:36;7.50;;;2.67;;
53391;SDS011;41667;51.922;8.850;2022-10-26T11:04:34;5.25;;;2.75;;
53391;SDS011;41667;51.922;8.850;2022-10-26T11:07:03;3.20;;;2.85;;
53391;SDS011;41667;51.922;8.850;2022-10-26T11:09:31;3.15;;;2.25;;
53391;SDS011;41667;51.922;8.850;2022-10-26T11:11:57;8.02;;;2.47;;
53391;SDS011;41667;51.922;8.850;2022-10-26T11:14:37;5.00;;;1.90;;
53391;SDS011;41667;51.922;8.850;2022-10-26T11:19:47;2.35;;;1.98;;
53391;SDS011;41667;51.922;8.850;2022-10-26T11:22:14;1.58;;;1.35;;
53391;SDS011;41667;51.922;8.850;2022-10-26T11:27:14;5.80;;;1.90;;
53391;SDS011;41667;51.922;8.850;2022-10-26T11:29:50;2.13;;;1.60;;
53391;SDS011;41667;51.922;8.850;2022-10-26T11:32:18;3.95;;;1.50;;
53391;SDS011;41667;51.922;8.850;2022-10-26T11:35:02;1.17;;;1.08;;
53391;SDS011;41667;51.922;8.850;2022-10-26T11:42:45;1.52;;;1.25;;
53391;SDS011;41667;51.922;8.850;2022-10-26T11:45:31;5.05;;;1.08;;
53391;SDS011;41667;51.922;8.850;2022-10-26T11:50:46;6.10;;;1.20;;
53391;SDS011;41667;51.922;8.850;2022-10-26T11:53:17;10.23;;;1.58;;
53391;SDS011;41667;51.922;8.850;2022-10-26T11:55:52;5.22;;;1.10;;
53391;SDS011;41667;51.922;8.850;2022-10-26T11:58:18;3.88;;;1.58;;
53391;SDS011;41667;51.922;8.850;2022-10-26T12:00:48;4.40;;;1.38;;
53391;SDS011;41667;51.922;8.850;2022-10-26T12:03:14;4.22;;;1.55;;
53391;SDS011;41667;51.922;8.850;2022-10-26T12:08:11;3.08;;;2.00;;
53391;SDS011;41667;51.922;8.850;2022-10-26T12:10:38;5.03;;;1.58;;
53391;SDS011;41667;51.922;8.850;2022-10-26T12:15:34;4.43;;;1.65;;
53391;SDS011;41667;51.922;8.850;2022-10-26T12:23:10;7.75;;;1.60;;
53391;SDS011;41667;51.922;8.850;2022-10-26T12:25:36;4.47;;;2.20;;
53391;SDS011;41667;51.922;8.850;2022-10-26T12:28:01;5.77;;;1.20;;
53391;SDS011;41667;51.922;8.850;2022-10-26T12:30:30;5.00;;;1.90;;
53391;SDS011;41667;51.922;8.850;2022-10-26T12:32:56;3.38;;;1.40;;
53391;SDS011;41667;51.922;8.850;2022-10-26T12:37:59;3.53;;;1.33;;
53391;SDS011;41667;51.922;8.850;2022-10-26T12:42:56;3.80;;;1.83;;
53391;SDS011;41667;51.922;8.850;2022-10-26T12:45:22;5.88;;;1.95;;
53391;SDS011;41667;51.922;8.850;2022-10-26T12:52:45;3.97;;;1.70;;
53391;SDS011;41667;51.922;8.850;2022-10-26T12:55:17;2.55;;;1.50;;
53391;SDS011;41667;51.922;8.850;2022-10-26T13:00:15;4.47;;;1.67;;
53391;SDS011;41667;51.922;8.850;2022-10-26T13:02:49;3.78;;;1.90;;
53391;SDS011;41667;51.922;8.850;2022-10-26T13:07:43;6.18;;;2.80;;
53391;SDS011;41667;51.922;8.850;2022-10-26T13:12:44;2.28;;;1.25;;
53391;SDS011;41667;51.922;8.850;2022-10-26T13:15:26;5.07;;;1.40;;
53391;SDS011;41667;51.922;8.850;2022-10-26T13:17:59;3.50;;;1.30;;
53391;SDS011;41667;51.922;8.850;2022-10-26T13:20:25;3.05;;;1.75;;
53391;SDS011;41667;51.922;8.850;2022-10-26T13:22:50;8.40;;;1.40;;
53391;SDS011;41667;51.922;8.850;2022-10-26T13:25:20;6.40;;;1.40;;
53391;SDS011;41667;51.922;8.850;2022-10-26T13:27:56;3.20;;;1.35;;
53391;SDS011;41667;51.922;8.850;2022-10-26T13:32:54;2.45;;;1.40;;
53391;SDS011;41667;51.922;8.850;2022-10-26T13:35:20;4.63;;;2.15;;
53391;SDS011;41667;51.922;8.850;2022-10-26T13:37:46;6.63;;;1.73;;
53391;SDS011;41667;51.922;8.850;2022-10-26T13:40:34;7.68;;;1.63;;
53391;SDS011;41667;51.922;8.850;2022-10-26T13:43:02;6.53;;;1.63;;
53391;SDS011;41667;51.922;8.850;2022-10-26T13:45:28;4.47;;;1.73;;
53391;SDS011;41667;51.922;8.850;2022-10-26T13:48:16;3.60;;;1.50;;
53391;SDS011;41667;51.922;8.850;2022-10-26T13:50:47;4.95;;;1.90;;
53391;SDS011;41667;51.922;8.850;2022-10-26T13:53:21;2.83;;;1.20;;
53391;SDS011;41667;51.922;8.850;2022-10-26T13:55:49;6.00;;;1.48;;
53391;SDS011;41667;51.922;8.850;2022-10-26T13:58:21;3.70;;;1.60;;
53391;SDS011;41667;51.922;8.850;2022-10-26T14:03:32;2.22;;;1.23;;
53391;SDS011;41667;51.922;8.850;2022-10-26T14:05:58;5.68;;;1.75;;
53391;SDS011;41667;51.922;8.850;2022-10-26T14:08:23;13.77;;;4.23;;
53391;SDS011;41667;51.922;8.850;2022-10-26T14:10:55;3.15;;;1.63;;
53391;SDS011;41667;51.922;8.850;2022-10-26T14:13:22;8.73;;;1.35;;
53391;SDS011;41667;51.922;8.850;2022-10-26T14:15:48;5.43;;;1.42;;
53391;SDS011;41667;51.922;8.850;2022-10-26T14:18:20;11.03;;;1.97;;
53391;SDS011;41667;51.922;8.850;2022-10-26T14:20:47;16.08;;;3.35;;
53391;SDS011;41667;51.922;8.850;2022-10-26T14:23:26;5.47;;;1.90;;
53391;SDS011;41667;51.922;8.850;2022-10-26T14:25:52;11.07;;;1.88;;
53391;SDS011;41667;51.922;8.850;2022-10-26T14:28:22;5.07;;;1.65;;
53391;SDS011;41667;51.922;8.850;2022-10-26T14:30:47;9.23;;;1.50;;
53391;SDS011;41667;51.922;8.850;2022-10-26T14:33:16;5.85;;;1.80;;
53391;SDS011;41667;51.922;8.850;2022-10-26T14:35:41;5.28;;;1.50;;
53391;SDS011;41667;51.922;8.850;2022-10-26T14:38:09;3.23;;;1.60;;
53391;SDS011;41667;51.922;8.850;2022-10-26T14:43:03;5.15;;;1.40;;
53391;SDS011;41667;51.922;8.850;2022-10-26T14:45:36;6.22;;;1.50;;
53391;SDS011;41667;51.922;8.850;2022-10-26T14:48:03;5.47;;;1.83;;
53391;SDS011;41667;51.922;8.850;2022-10-26T14:50:29;2.20;;;1.95;;
53391;SDS011;41667;51.922;8.850;2022-10-26T14:53:00;4.25;;;2.15;;
53391;SDS011;41667;51.922;8.850;2022-10-26T14:55:26;3.33;;;1.73;;
53391;SDS011;41667;51.922;8.850;2022-10-26T14:57:52;6.75;;;2.13;;
53391;SDS011;41667;51.922;8.850;2022-10-26T15:00:29;2.15;;;1.98;;
53391;SDS011;41667;51.922;8.850;2022-10-26T15:02:54;4.65;;;1.65;;
53391;SDS011;41667;51.922;8.850;2022-10-26T15:05:27;6.50;;;1.75;;
53391;SDS011;41667;51.922;8.850;2022-10-26T15:07:54;9.18;;;3.97;;
53391;SDS011;41667;51.922;8.850;2022-10-26T15:15:44;4.65;;;1.88;;
53391;SDS011;41667;51.922;8.850;2022-10-26T15:18:14;5.20;;;2.20;;
53391;SDS011;41667;51.922;8.850;2022-10-26T15:23:11;7.43;;;1.95;;
53391;SDS011;41667;51.922;8.850;2022-10-26T15:25:37;5.30;;;1.88;;
53391;SDS011;41667;51.922;8.850;2022-10-26T15:28:09;3.03;;;1.58;;
53391;SDS011;41667;51.922;8.850;2022-10-26T15:30:35;5.03;;;1.63;;
53391;SDS011;41667;51.922;8.850;2022-10-26T15:33:09;7.43;;;1.83;;
53391;SDS011;41667;51.922;8.850;2022-10-26T15:35:40;5.50;;;2.83;;
53391;SDS011;41667;51.922;8.850;2022-10-26T15:38:09;6.20;;;1.80;;
53391;SDS011;41667;51.922;8.850;2022-10-26T15:40:35;12.68;;;2.65;;
53391;SDS011;41667;51.922;8.850;2022-10-26T15:43:08;9.60;;;1.98;;
53391;SDS011;41667;51.922;8.850;2022-10-26T15:45:34;5.85;;;2.03;;
53391;SDS011;41667;51.922;8.850;2022-10-26T15:48:15;3.70;;;1.35;;
53391;SDS011;41667;51.922;8.850;2022-10-26T15:50:41;7.18;;;1.45;;
53391;SDS011;41667;51.922;8.850;2022-10-26T15:53:19;3.85;;;3.05;;
53391;SDS011;41667;51.922;8.850;2022-10-26T15:55:44;7.10;;;2.13;;
53391;SDS011;41667;51.922;8.850;2022-10-26T15:58:10;8.65;;;2.75;;
53391;SDS011;41667;51.922;8.850;2022-10-26T16:00:35;5.07;;;1.90;;
53391;SDS011;41667;51.922;8.850;2022-10-26T16:03:01;6.03;;;1.92;;
53391;SDS011;41667;51.922;8.850;2022-10-26T16:05:26;2.42;;;1.40;;
53391;SDS011;41667;51.922;8.850;2022-10-26T16:07:51;5.30;;;1.77;;
53391;SDS011;41667;51.922;8.850;2022-10-26T16:10:23;5.53;;;1.73;;
53391;SDS011;41667;51.922;8.850;2022-10-26T16:12:49;2.80;;;1.65;;
53391;SDS011;41667;51.922;8.850;2022-10-26T16:15:15;8.32;;;1.45;;
53391;SDS011;41667;51.922;8.850;2022-10-26T16:17:41;5.70;;;1.95;;
53391;SDS011;41667;51.922;8.850;2022-10-26T16:20:13;3.80;;;1.75;;
53391;SDS011;41667;51.922;8.850;2022-10-26T16:22:38;5.05;;;2.38;;
53391;SDS011;41667;51.922;8.850;2022-10-26T16:25:06;5.10;;;1.40;;
53391;SDS011;41667;51.922;8.850;2022-10-26T16:27:31;1.85;;;1.42;;